Time;durP1;ratioP1;P1;durP2;ratioP2;P2;SDS_P1;SDS_P2;PMS_P1;PMS_P2;Temp;Humidity;BMP_temperature;BMP_pressure;BME280_temperature;BME280_humidity;BME280_pressure;Samples;Min_cycle;Max_cycle;Signal;HPM_P1;HPM_P2
2023/01/10 00:00:46;;;;;;;18.65;2.67;;;;;;;;;;5034423;28;20650;-66
2023/01/10 00:03:12;;;;;;;16.98;2.58;;;;;;;;;;5033662;28;20045;-66
2023/01/10 00:05:39;;;;;;;16.08;2.90;;;;;;;;;;5034314;28;20037;-66
2023/01/10 00:08:06;;;;;;;17.70;2.88;;;;;;;;;;5034114;28;20044;-66
2023/01/10 00:10:32;;;;;;;9.57;2.08;;;;;;;;;;5033896;28;20033;-66
2023/01/10 00:15:43;;;;;;;13.63;2.33;;;;;;;;;;5054238;28;20041;-66
2023/01/10 00:18:10;;;;;;;15.82;2.85;;;;;;;;;;5053628;28;20045;-66
2023/01/10 00:20:36;;;;;;;13.30;2.65;;;;;;;;;;5053589;28;20063;-66
2023/01/10 00:23:02;;;;;;;10.13;2.40;;;;;;;;;;5053618;28;20041;-66
2023/01/10 00:25:28;;;;;;;12.40;2.28;;;;;;;;;;5048566;28;20045;-66
2023/01/10 00:28:09;;;;;;;23.00;3.38;;;;;;;;;;5033986;28;20659;-66
2023/01/10 00:30:37;;;;;;;18.65;3.13;;;;;;;;;;5033950;28;20418;-66
2023/01/10 00:33:03;;;;;;;23.58;3.15;;;;;;;;;;5032136;28;20044;-66
2023/01/10 00:35:30;;;;;;;17.98;2.83;;;;;;;;;;5033883;28;20052;-66
2023/01/10 00:38:00;;;;;;;18.83;2.75;;;;;;;;;;5033773;28;20034;-66
2023/01/10 00:40:26;;;;;;;16.15;3.00;;;;;;;;;;5031815;28;20060;-66
2023/01/10 00:45:37;;;;;;;13.88;3.83;;;;;;;;;;5033465;28;20129;-66
2023/01/10 00:48:03;;;;;;;18.45;3.00;;;;;;;;;;5033175;28;20041;-66
2023/01/10 00:50:29;;;;;;;18.38;3.47;;;;;;;;;;5033053;28;20045;-66
2023/01/10 00:52:55;;;;;;;20.40;3.10;;;;;;;;;;5033620;28;20171;-66
2023/01/10 00:55:21;;;;;;;18.02;3.28;;;;;;;;;;5032964;28;20048;-66
2023/01/10 00:57:47;;;;;;;18.02;2.83;;;;;;;;;;5033532;28;20041;-66
2023/01/10 01:00:13;;;;;;;17.88;2.90;;;;;;;;;;5033338;28;20041;-66
2023/01/10 01:02:39;;;;;;;12.60;3.00;;;;;;;;;;5032650;28;20077;-66
2023/01/10 01:05:06;;;;;;;23.83;3.40;;;;;;;;;;5031982;28;20061;-66
2023/01/10 01:07:32;;;;;;;18.20;3.45;;;;;;;;;;5033269;28;20400;-66
2023/01/10 01:12:42;;;;;;;23.55;2.90;;;;;;;;;;5050586;28;20519;-66
2023/01/10 01:15:09;;;;;;;19.42;3.30;;;;;;;;;;5052790;28;20084;-66
2023/01/10 01:17:35;;;;;;;16.60;4.03;;;;;;;;;;5051187;28;20122;-66
2023/01/10 01:20:01;;;;;;;17.10;3.08;;;;;;;;;;5052419;28;20049;-66
2023/01/10 01:22:27;;;;;;;19.08;2.90;;;;;;;;;;5052745;28;20367;-66
2023/01/10 01:24:53;;;;;;;18.25;3.33;;;;;;;;;;5051055;28;20048;-66
2023/01/10 01:27:19;;;;;;;17.73;3.05;;;;;;;;;;5012770;28;20052;-66
2023/01/10 01:29:45;;;;;;;18.58;3.20;;;;;;;;;;5013210;28;20121;-66
2023/01/10 01:32:12;;;;;;;16.45;2.72;;;;;;;;;;5012483;28;20049;-66
2023/01/10 01:34:38;;;;;;;12.73;2.80;;;;;;;;;;5013082;28;20041;-66
2023/01/10 01:37:04;;;;;;;13.43;2.35;;;;;;;;;;5012753;28;20546;-66
2023/01/10 01:39:30;;;;;;;21.77;2.97;;;;;;;;;;5012462;28;20045;-66
2023/01/10 01:41:56;;;;;;;15.57;3.88;;;;;;;;;;5012373;28;20041;-66
2023/01/10 01:44:22;;;;;;;15.63;2.75;;;;;;;;;;5012648;28;20040;-66
2023/01/10 01:46:55;;;;;;;15.10;2.80;;;;;;;;;;5012401;28;20416;-66
2023/01/10 01:49:22;;;;;;;19.13;3.08;;;;;;;;;;5012727;28;20457;-66
2023/01/10 01:51:49;;;;;;;23.40;3.63;;;;;;;;;;5027827;28;20081;-66
2023/01/10 01:54:15;;;;;;;15.45;2.50;;;;;;;;;;5012305;28;20049;-66
2023/01/10 01:56:44;;;;;;;14.95;3.40;;;;;;;;;;5012515;28;20042;-66
2023/01/10 01:59:19;;;;;;;16.73;3.38;;;;;;;;;;5012518;28;20041;-66
2023/01/10 02:01:47;;;;;;;13.18;2.75;;;;;;;;;;5010737;28;20046;-66
2023/01/10 02:04:16;;;;;;;27.65;3.42;;;;;;;;;;5011942;28;20122;-66
2023/01/10 02:06:44;;;;;;;20.27;3.28;;;;;;;;;;5012122;28;20519;-66
2023/01/10 02:09:36;;;;;;;14.25;2.72;;;;;;;;;;5017375;28;20041;-66
2023/01/10 02:12:02;;;;;;;22.17;3.15;;;;;;;;;;5041645;28;20056;-66
2023/01/10 02:14:29;;;;;;;21.98;3.03;;;;;;;;;;5051839;28;20041;-66
2023/01/10 02:16:54;;;;;;;14.20;2.58;;;;;;;;;;5051433;28;20068;-66
2023/01/10 02:19:28;;;;;;;24.88;3.70;;;;;;;;;;5051727;28;20408;-66
2023/01/10 02:21:57;;;;;;;15.13;2.88;;;;;;;;;;5051593;28;20053;-66
2023/01/10 02:24:23;;;;;;;19.30;3.15;;;;;;;;;;5051116;28;20091;-66
2023/01/10 02:27:08;;;;;;;18.50;2.80;;;;;;;;;;5035784;28;20037;-66
2023/01/10 02:29:52;;;;;;;19.15;3.65;;;;;;;;;;5031785;28;20075;-66
2023/01/10 02:32:31;;;;;;;15.10;2.90;;;;;;;;;;5031273;28;20049;-66
2023/01/10 02:35:15;;;;;;;20.83;3.78;;;;;;;;;;5031486;28;20048;-66
2023/01/10 02:37:56;;;;;;;19.02;2.80;;;;;;;;;;5031105;28;20091;-66
2023/01/10 02:40:23;;;;;;;21.27;2.92;;;;;;;;;;5031434;28;20045;-66
2023/01/10 02:42:55;;;;;;;18.30;3.55;;;;;;;;;;5031015;28;20136;-66
2023/01/10 02:45:21;;;;;;;;;;;;;;;;;;5031563;28;20510;-66
2023/01/10 02:47:47;;;;;;;18.13;2.88;;;;;;;;;;5030858;28;19960;-66
2023/01/10 02:50:27;;;;;;;22.73;3.67;;;;;;;;;;5031402;28;20076;-66
2023/01/10 02:52:54;;;;;;;13.18;3.60;;;;;;;;;;5030559;28;20045;-66
2023/01/10 02:55:22;;;;;;;14.50;2.63;;;;;;;;;;5031330;28;20039;-66
2023/01/10 02:58:06;;;;;;;20.20;3.05;;;;;;;;;;5031305;28;20045;-66
2023/01/10 03:00:42;;;;;;;14.65;2.78;;;;;;;;;;5030806;28;20124;-66
2023/01/10 03:03:08;;;;;;;17.00;3.40;;;;;;;;;;5030595;28;20042;-66
2023/01/10 03:05:42;;;;;;;21.35;3.80;;;;;;;;;;5031062;28;20039;-66
2023/01/10 03:08:27;;;;;;;19.52;3.50;;;;;;;;;;5030599;28;20045;-66
2023/01/10 03:10:58;;;;;;;15.32;3.25;;;;;;;;;;5033270;28;20037;-66
2023/01/10 03:13:24;;;;;;;20.98;3.13;;;;;;;;;;5050633;28;20483;-66
2023/01/10 03:15:52;;;;;;;16.65;3.00;;;;;;;;;;5050378;28;20037;-66
2023/01/10 03:18:22;;;;;;;18.50;3.70;;;;;;;;;;5050308;28;20110;-66
2023/01/10 03:20:51;;;;;;;19.55;3.30;;;;;;;;;;5050240;28;20060;-66
2023/01/10 03:23:18;;;;;;;17.33;3.60;;;;;;;;;;5048773;28;20072;-66
2023/01/10 03:25:45;;;;;;;16.85;3.05;;;;;;;;;;5043621;28;20121;-66
2023/01/10 03:28:30;;;;;;;16.63;2.92;;;;;;;;;;5030824;28;20088;-66
2023/01/10 03:30:59;;;;;;;18.35;3.03;;;;;;;;;;5030085;28;20460;-66
2023/01/10 03:33:27;;;;;;;24.15;3.60;;;;;;;;;;5030205;28;20084;-66
2023/01/10 03:35:56;;;;;;;18.50;3.72;;;;;;;;;;5030455;28;20041;-66
2023/01/10 03:38:31;;;;;;;16.38;3.03;;;;;;;;;;5029966;28;20128;-66
2023/01/10 03:41:10;;;;;;;18.40;3.38;;;;;;;;;;5030339;28;20346;-66
2023/01/10 03:46:32;;;;;;;14.73;2.75;;;;;;;;;;5030464;28;20046;-66
2023/01/10 03:48:59;;;;;;;25.08;3.50;;;;;;;;;;5030656;28;20100;-66
2023/01/10 03:51:26;;;;;;;26.80;3.85;;;;;;;;;;5029758;28;20095;-66
2023/01/10 03:53:52;;;;;;;22.85;3.50;;;;;;;;;;5030461;28;20124;-66
2023/01/10 03:56:18;;;;;;;23.30;4.78;;;;;;;;;;5030445;28;20043;-66
2023/01/10 03:58:44;;;;;;;21.30;3.10;;;;;;;;;;5030213;28;20041;-66
2023/01/10 04:01:10;;;;;;;16.15;3.00;;;;;;;;;;5029852;28;20049;-66
2023/01/10 04:03:36;;;;;;;17.30;3.53;;;;;;;;;;5030342;28;20041;-66
2023/01/10 04:06:03;;;;;;;20.52;3.42;;;;;;;;;;5029839;28;20033;-66
2023/01/10 04:08:29;;;;;;;15.10;3.50;;;;;;;;;;5030420;28;20041;-66
2023/01/10 04:10:55;;;;;;;22.23;3.65;;;;;;;;;;5016077;28;20041;-66
2023/01/10 04:13:21;;;;;;;16.73;2.85;;;;;;;;;;5049601;28;20095;-66
2023/01/10 04:15:47;;;;;;;16.75;3.13;;;;;;;;;;5048740;28;20040;-66
2023/01/10 04:18:14;;;;;;;16.65;3.00;;;;;;;;;;5050453;28;20442;-66
2023/01/10 04:20:40;;;;;;;17.73;3.20;;;;;;;;;;5049677;28;20099;-66
2023/01/10 04:23:06;;;;;;;23.02;3.38;;;;;;;;;;5049710;28;20045;-66
2023/01/10 04:25:32;;;;;;;16.33;3.83;;;;;;;;;;5044683;28;20033;-66
2023/01/10 04:27:58;;;;;;;21.70;4.50;;;;;;;;;;5030313;28;20128;-66
2023/01/10 04:30:24;;;;;;;20.00;3.78;;;;;;;;;;5029703;28;20037;-66
2023/01/10 04:32:50;;;;;;;22.35;3.63;;;;;;;;;;5030071;28;20049;-66
2023/01/10 04:35:16;;;;;;;18.35;4.05;;;;;;;;;;5030462;28;20043;-66
2023/01/10 04:37:43;;;;;;;21.85;4.28;;;;;;;;;;5029557;28;20175;-66
2023/01/10 04:40:09;;;;;;;22.33;4.10;;;;;;;;;;5029059;28;20060;-66
2023/01/10 04:42:36;;;;;;;26.80;4.82;;;;;;;;;;5029342;28;20123;-66
2023/01/10 04:45:02;;;;;;;20.00;3.40;;;;;;;;;;5030723;28;20029;-66
2023/01/10 04:47:28;;;;;;;16.67;4.90;;;;;;;;;;5032052;28;20041;-66
2023/01/10 04:49:54;;;;;;;22.77;4.10;;;;;;;;;;5033809;28;20073;-66
2023/01/10 04:52:20;;;;;;;20.42;3.90;;;;;;;;;;5032899;28;20045;-66
2023/01/10 04:54:46;;;;;;;19.67;4.07;;;;;;;;;;5033512;28;20530;-66
2023/01/10 04:57:12;;;;;;;18.77;3.50;;;;;;;;;;5033247;28;20076;-66
2023/01/10 04:59:38;;;;;;;24.17;4.13;;;;;;;;;;5033090;28;20046;-66
2023/01/10 05:02:04;;;;;;;20.52;3.63;;;;;;;;;;5033085;28;20038;-66
2023/01/10 05:04:31;;;;;;;21.27;3.42;;;;;;;;;;5033307;28;20037;-66
2023/01/10 05:06:57;;;;;;;16.33;3.53;;;;;;;;;;5032935;28;20083;-66
2023/01/10 05:09:23;;;;;;;19.10;3.30;;;;;;;;;;5033243;28;20029;-66
2023/01/10 05:11:49;;;;;;;20.50;3.40;;;;;;;;;;5043199;28;20132;-66
2023/01/10 05:14:15;;;;;;;18.70;3.38;;;;;;;;;;5052687;28;20124;-66
2023/01/10 05:16:41;;;;;;;18.20;3.58;;;;;;;;;;5052955;28;20534;-66
2023/01/10 05:19:07;;;;;;;20.42;3.65;;;;;;;;;;5052971;28;20040;-66
2023/01/10 05:21:33;;;;;;;20.20;3.60;;;;;;;;;;5052159;28;20061;-66
2023/01/10 05:23:59;;;;;;;18.42;3.53;;;;;;;;;;5052359;28;20695;-66
2023/01/10 05:26:25;;;;;;;22.02;4.25;;;;;;;;;;5040306;28;20116;-66
2023/01/10 05:28:51;;;;;;;19.67;3.65;;;;;;;;;;5032434;28;20052;-66
2023/01/10 05:31:18;;;;;;;19.80;3.42;;;;;;;;;;5032662;28;20045;-66
2023/01/10 05:33:45;;;;;;;18.38;3.25;;;;;;;;;;5030962;28;20045;-66
2023/01/10 05:36:11;;;;;;;22.88;3.60;;;;;;;;;;5030758;28;20140;-66
2023/01/10 05:38:37;;;;;;;31.13;4.13;;;;;;;;;;5032500;28;20069;-66
2023/01/10 05:41:03;;;;;;;19.95;3.80;;;;;;;;;;5032411;28;20045;-66
2023/01/10 05:43:29;;;;;;;21.42;4.13;;;;;;;;;;5031715;28;20179;-66
2023/01/10 05:45:55;;;;;;;23.88;3.92;;;;;;;;;;5032539;28;20124;-66
2023/01/10 05:48:21;;;;;;;23.42;3.72;;;;;;;;;;5032336;28;20045;-66
2023/01/10 05:50:49;;;;;;;20.60;4.03;;;;;;;;;;5032206;28;20061;-66
2023/01/10 05:53:15;;;;;;;22.88;3.63;;;;;;;;;;5032128;28;20108;-66
2023/01/10 05:55:41;;;;;;;21.48;3.95;;;;;;;;;;5031907;28;20488;-66
2023/01/10 05:58:09;;;;;;;25.75;3.72;;;;;;;;;;5031699;28;20052;-66
2023/01/10 06:00:36;;;;;;;25.23;4.97;;;;;;;;;;5032283;28;20042;-66
2023/01/10 06:03:02;;;;;;;21.85;3.35;;;;;;;;;;5031834;28;20041;-66
2023/01/10 06:05:28;;;;;;;28.67;4.72;;;;;;;;;;5031690;28;20044;-66
2023/01/10 06:07:54;;;;;;;27.30;4.57;;;;;;;;;;5030265;28;20049;-66
2023/01/10 06:10:20;;;;;;;19.27;4.05;;;;;;;;;;5013793;28;20164;-66
2023/01/10 06:12:48;;;;;;;23.83;3.63;;;;;;;;;;5049427;28;20041;-67
2023/01/10 06:15:15;;;;;;;25.52;4.15;;;;;;;;;;5051789;28;20120;-66
2023/01/10 06:17:43;;;;;;;26.52;4.68;;;;;;;;;;5052051;28;20048;-66
2023/01/10 06:20:09;;;;;;;23.38;3.85;;;;;;;;;;5051269;28;20068;-66
2023/01/10 06:22:35;;;;;;;22.95;3.92;;;;;;;;;;5051771;28;20148;-66
2023/01/10 06:25:02;;;;;;;20.25;4.40;;;;;;;;;;5050823;28;20037;-66
2023/01/10 06:27:28;;;;;;;19.00;3.90;;;;;;;;;;5031719;28;20040;-66
2023/01/10 06:29:54;;;;;;;16.15;4.47;;;;;;;;;;5031928;28;20033;-66
2023/01/10 06:32:20;;;;;;;23.58;5.45;;;;;;;;;;5030488;28;20687;-66
2023/01/10 06:34:46;;;;;;;26.73;5.60;;;;;;;;;;5031423;28;20048;-66
2023/01/10 06:37:12;;;;;;;29.48;5.30;;;;;;;;;;5030682;28;20084;-66
2023/01/10 06:39:38;;;;;;;25.58;4.63;;;;;;;;;;5031744;28;20048;-66
2023/01/10 06:42:04;;;;;;;21.23;5.00;;;;;;;;;;5031275;28;20095;-66
2023/01/10 06:44:30;;;;;;;27.90;5.47;;;;;;;;;;5031301;28;20033;-66
2023/01/10 06:46:56;;;;;;;23.67;4.30;;;;;;;;;;5031494;28;20488;-66
2023/01/10 06:49:22;;;;;;;26.70;5.00;;;;;;;;;;5031214;28;20037;-66
2023/01/10 06:51:48;;;;;;;21.67;5.07;;;;;;;;;;5030449;28;20045;-66
2023/01/10 06:54:15;;;;;;;25.13;5.38;;;;;;;;;;5031429;28;20052;-66
2023/01/10 06:56:41;;;;;;;30.42;5.80;;;;;;;;;;5030599;28;20076;-66
2023/01/10 06:59:08;;;;;;;25.00;4.53;;;;;;;;;;5030100;28;20060;-66
2023/01/10 07:01:34;;;;;;;26.00;4.47;;;;;;;;;;5029797;28;20087;-66
2023/01/10 07:04:00;;;;;;;28.30;4.45;;;;;;;;;;5030472;28;20037;-66
2023/01/10 07:06:26;;;;;;;26.35;4.85;;;;;;;;;;5031396;28;20045;-66
2023/01/10 07:08:54;;;;;;;24.77;4.82;;;;;;;;;;5028533;28;20160;-66
2023/01/10 07:11:20;;;;;;;23.40;5.18;;;;;;;;;;5036769;28;20072;-66
2023/01/10 07:13:46;;;;;;;25.20;5.05;;;;;;;;;;5050639;28;20569;-66
2023/01/10 07:16:13;;;;;;;23.58;4.72;;;;;;;;;;5050798;28;20048;-66
2023/01/10 07:18:40;;;;;;;19.50;4.38;;;;;;;;;;5050889;28;20045;-66
2023/01/10 07:21:06;;;;;;;20.15;5.22;;;;;;;;;;5050648;28;20052;-66
2023/01/10 07:23:32;;;;;;;21.95;4.80;;;;;;;;;;5050848;28;20144;-66
2023/01/10 07:26:01;;;;;;;32.92;5.15;;;;;;;;;;5041524;28;20041;-66
2023/01/10 07:28:27;;;;;;;25.77;5.25;;;;;;;;;;5030181;28;20469;-65
2023/01/10 07:30:53;;;;;;;26.52;4.50;;;;;;;;;;5030250;28;20037;-65
2023/01/10 07:33:19;;;;;;;24.77;4.90;;;;;;;;;;5024048;28;20050;-66
2023/01/10 07:35:45;;;;;;;28.40;4.60;;;;;;;;;;5022974;28;20044;-64
2023/01/10 07:38:12;;;;;;;23.48;5.38;;;;;;;;;;5022725;28;20037;-66
2023/01/10 07:40:38;;;;;;;26.08;5.13;;;;;;;;;;5037299;28;20041;-65
2023/01/10 07:43:04;;;;;;;18.38;5.07;;;;;;;;;;5024241;28;20044;-67
2023/01/10 07:45:30;;;;;;;24.30;4.43;;;;;;;;;;5027981;28;20042;-66
2023/01/10 07:47:57;;;;;;;21.40;5.28;;;;;;;;;;5028380;28;20044;-71
2023/01/10 07:50:23;;;;;;;26.45;4.72;;;;;;;;;;5020229;28;20083;-73
2023/01/10 07:52:49;;;;;;;23.33;4.90;;;;;;;;;;5027989;28;20836;-71
2023/01/10 07:55:16;;;;;;;24.35;5.65;;;;;;;;;;5011400;28;20048;-69
2023/01/10 07:57:42;;;;;;;17.92;4.10;;;;;;;;;;5026064;28;20061;-68
2023/01/10 08:00:08;;;;;;;24.65;4.60;;;;;;;;;;5027689;28;20102;-66
2023/01/10 08:02:34;;;;;;;22.05;4.97;;;;;;;;;;5026559;28;20760;-67
2023/01/10 08:05:01;;;;;;;22.85;4.72;;;;;;;;;;5031808;28;20179;-67
2023/01/10 08:07:30;;;;;;;20.10;4.57;;;;;;;;;;5013808;28;20152;-68
2023/01/10 08:09:56;;;;;;;26.52;4.70;;;;;;;;;;5023996;28;20042;-68
2023/01/10 08:12:23;;;;;;;20.20;4.65;;;;;;;;;;5025563;28;20041;-69
2023/01/10 08:14:50;;;;;;;31.05;5.07;;;;;;;;;;5026635;28;20120;-67
2023/01/10 08:17:16;;;;;;;20.70;4.50;;;;;;;;;;5023645;28;20053;-68
2023/01/10 08:19:42;;;;;;;24.95;5.13;;;;;;;;;;5027075;28;20057;-68
2023/01/10 08:22:08;;;;;;;30.55;4.95;;;;;;;;;;5027665;28;20052;-69
2023/01/10 08:24:34;;;;;;;26.92;5.50;;;;;;;;;;5027924;28;20037;-68
2023/01/10 08:27:01;;;;;;;25.83;4.35;;;;;;;;;;5023682;28;20048;-66
2023/01/10 08:29:27;;;;;;;27.33;4.63;;;;;;;;;;5024293;28;20037;-66
2023/01/10 08:31:54;;;;;;;32.55;5.25;;;;;;;;;;5024652;28;20050;-68
2023/01/10 08:34:20;;;;;;;23.65;5.10;;;;;;;;;;5025788;28;20187;-68
2023/01/10 08:36:49;;;;;;;19.38;4.22;;;;;;;;;;5030656;28;20045;-68
2023/01/10 08:39:15;;;;;;;27.83;5.35;;;;;;;;;;5030083;28;20491;-68
2023/01/10 08:41:41;;;;;;;23.02;5.53;;;;;;;;;;5029167;28;20045;-67
2023/01/10 08:44:07;;;;;;;23.23;3.92;;;;;;;;;;5029932;28;20479;-67
2023/01/10 08:46:33;;;;;;;26.08;4.55;;;;;;;;;;5025648;28;20037;-67
2023/01/10 08:49:00;;;;;;;20.60;4.00;;;;;;;;;;5029187;28;20045;-68
2023/01/10 08:51:26;;;;;;;24.08;4.30;;;;;;;;;;5025487;28;20038;-67
2023/01/10 08:53:52;;;;;;;22.92;4.93;;;;;;;;;;5028553;28;20095;-67
2023/01/10 08:56:18;;;;;;;28.60;3.97;;;;;;;;;;5020939;28;20036;-69
2023/01/10 08:58:44;;;;;;;25.45;4.22;;;;;;;;;;5028302;28;20049;-70
2023/01/10 09:01:11;;;;;;;27.17;4.60;;;;;;;;;;5012005;28;20072;-66
2023/01/10 09:03:38;;;;;;;25.25;4.00;;;;;;;;;;5030578;28;20428;-67
2023/01/10 09:06:05;;;;;;;28.58;4.78;;;;;;;;;;5021102;28;20099;-67
2023/01/10 09:08:31;;;;;;;30.80;4.65;;;;;;;;;;5032655;28;20558;-67
2023/01/10 09:11:01;;;;;;;21.02;4.30;;;;;;;;;;5029722;28;20372;-68
2023/01/10 09:13:27;;;;;;;21.42;4.47;;;;;;;;;;5027107;28;20365;-66
2023/01/10 09:15:54;;;;;;;25.17;4.63;;;;;;;;;;5028935;28;20411;-67
2023/01/10 09:18:20;;;;;;;23.52;4.22;;;;;;;;;;5029223;28;20135;-68
2023/01/10 09:20:46;;;;;;;19.88;3.92;;;;;;;;;;5030750;28;20052;-67
2023/01/10 09:23:16;;;;;;;24.05;4.60;;;;;;;;;;5032459;28;20713;-65
2023/01/10 09:25:42;;;;;;;23.70;4.40;;;;;;;;;;5032810;28;20104;-65
2023/01/10 09:28:09;;;;;;;30.10;4.90;;;;;;;;;;5026898;28;20044;-66
2023/01/10 09:30:35;;;;;;;21.58;5.00;;;;;;;;;;5009900;28;20544;-65
2023/01/10 09:33:02;;;;;;;25.80;5.10;;;;;;;;;;5035975;28;20064;-65
2023/01/10 09:35:28;;;;;;;25.77;4.28;;;;;;;;;;5029151;28;20041;-66
2023/01/10 09:37:55;;;;;;;29.23;4.25;;;;;;;;;;5026228;28;20442;-66
2023/01/10 09:40:33;;;;;;;20.52;4.20;;;;;;;;;;5024424;28;20129;-66
2023/01/10 09:43:34;;;;;;;31.75;4.88;;;;;;;;;;5027339;28;20045;-66
2023/01/10 09:46:04;;;;;;;25.23;5.00;;;;;;;;;;4984102;28;20045;-65
2023/01/10 09:48:53;;;;;;;29.75;4.85;;;;;;;;;;5022005;28;20058;-65
2023/01/10 09:51:25;;;;;;;32.88;4.80;;;;;;;;;;5021324;28;20098;-67
2023/01/10 09:53:53;;;;;;;29.27;4.40;;;;;;;;;;5029564;28;20053;-66
2023/01/10 09:56:20;;;;;;;22.73;4.55;;;;;;;;;;5027866;28;20098;-66
2023/01/10 09:58:47;;;;;;;22.15;5.10;;;;;;;;;;5026194;28;20045;-66
2023/01/10 10:01:17;;;;;;;24.55;4.68;;;;;;;;;;5025322;28;21885;-65
2023/01/10 10:04:01;;;;;;;25.10;4.30;;;;;;;;;;5027378;28;20052;-67
2023/01/10 10:06:28;;;;;;;34.40;4.45;;;;;;;;;;5028489;28;20087;-67
2023/01/10 10:08:54;;;;;;;21.67;4.50;;;;;;;;;;5024878;28;20087;-66
2023/01/10 10:11:26;;;;;;;27.05;4.68;;;;;;;;;;5022277;28;20077;-66
2023/01/10 10:14:17;;;;;;;29.95;5.70;;;;;;;;;;5029662;28;20033;-67
2023/01/10 10:17:12;;;;;;;28.15;4.72;;;;;;;;;;5022719;28;20052;-66
2023/01/10 10:19:41;;;;;;;34.60;5.85;;;;;;;;;;5012078;28;20060;-68
2023/01/10 10:22:16;;;;;;;32.80;6.22;;;;;;;;;;5028009;28;20045;-66
2023/01/10 10:24:42;;;;;;;18.58;5.35;;;;;;;;;;5025045;28;20051;-66
2023/01/10 10:27:19;;;;;;;29.33;6.15;;;;;;;;;;5025231;28;20037;-66
2023/01/10 10:29:45;;;;;;;35.17;7.55;;;;;;;;;;5028218;28;20037;-65
2023/01/10 10:32:20;;;;;;;35.83;7.78;;;;;;;;;;5027411;28;20742;-66
2023/01/10 10:35:00;;;;;;;36.25;7.97;;;;;;;;;;5023953;28;20056;-66
2023/01/10 10:37:32;;;;;;;31.48;8.18;;;;;;;;;;5022962;28;20041;-66
2023/01/10 10:40:03;;;;;;;33.92;8.13;;;;;;;;;;5028379;28;20140;-67
2023/01/10 10:42:34;;;;;;;32.63;8.43;;;;;;;;;;5025619;28;20049;-66
2023/01/10 10:45:01;;;;;;;35.20;9.87;;;;;;;;;;5029264;28;20506;-67
2023/01/10 10:47:29;;;;;;;27.45;8.80;;;;;;;;;;5027427;28;20460;-66
2023/01/10 10:50:01;;;;;;;32.95;8.50;;;;;;;;;;5026933;28;20045;-66
2023/01/10 10:52:33;;;;;;;33.20;9.80;;;;;;;;;;5025680;28;20329;-65
2023/01/10 10:55:00;;;;;;;29.13;8.65;;;;;;;;;;5029009;28;20053;-65
2023/01/10 10:57:29;;;;;;;32.90;9.93;;;;;;;;;;5025849;28;20529;-66
2023/01/10 10:59:56;;;;;;;34.97;9.80;;;;;;;;;;5027283;28;20045;-65
2023/01/10 11:02:29;;;;;;;30.38;9.55;;;;;;;;;;5023967;28;20041;-65
2023/01/10 11:04:57;;;;;;;31.00;9.68;;;;;;;;;;5022327;28;20030;-66
2023/01/10 11:07:24;;;;;;;33.13;9.50;;;;;;;;;;5024258;28;20041;-66
2023/01/10 11:12:35;;;;;;;33.80;9.63;;;;;;;;;;5023924;28;20124;-66
2023/01/10 11:15:01;;;;;;;26.58;9.43;;;;;;;;;;5022338;28;20056;-66
2023/01/10 11:17:28;;;;;;;37.53;8.75;;;;;;;;;;5020675;28;20775;-65
2023/01/10 11:20:01;;;;;;;27.63;8.25;;;;;;;;;;5022832;28;20399;-64
2023/01/10 11:22:29;;;;;;;30.73;9.00;;;;;;;;;;5023699;28;20083;-66
2023/01/10 11:25:00;;;;;;;28.15;8.30;;;;;;;;;;5027051;28;20042;-67
2023/01/10 11:27:31;;;;;;;34.05;8.52;;;;;;;;;;5023917;28;20408;-68
2023/01/10 11:30:00;;;;;;;30.45;8.10;;;;;;;;;;5008919;28;20046;-67
2023/01/10 11:32:31;;;;;;;34.33;8.52;;;;;;;;;;5027353;28;20806;-67
2023/01/10 11:34:59;;;;;;;25.52;6.72;;;;;;;;;;5029486;28;20037;-67
2023/01/10 11:37:30;;;;;;;35.00;8.23;;;;;;;;;;5029827;28;20037;-67
2023/01/10 11:40:17;;;;;;;29.40;6.60;;;;;;;;;;5029161;28;20128;-67
2023/01/10 11:42:43;;;;;;;27.80;6.95;;;;;;;;;;5027393;28;20053;-67
2023/01/10 11:45:18;;;;;;;20.08;5.40;;;;;;;;;;5029304;28;20048;-67
2023/01/10 11:47:47;;;;;;;33.42;6.57;;;;;;;;;;5028260;28;20045;-67
2023/01/10 11:50:19;;;;;;;31.55;6.45;;;;;;;;;;5017845;28;20468;-67
2023/01/10 11:52:45;;;;;;;30.75;7.10;;;;;;;;;;5029274;28;20077;-67
2023/01/10 11:55:17;;;;;;;27.33;6.07;;;;;;;;;;5019131;28;20440;-67
2023/01/10 11:57:43;;;;;;;25.13;7.28;;;;;;;;;;5029621;28;20722;-67
2023/01/10 12:00:10;;;;;;;26.80;5.63;;;;;;;;;;5032605;28;20046;-67
2023/01/10 12:02:39;;;;;;;30.48;6.40;;;;;;;;;;5031612;28;20579;-67
2023/01/10 12:05:17;;;;;;;30.02;6.10;;;;;;;;;;5034455;28;20037;-67
2023/01/10 12:08:05;;;;;;;29.88;5.80;;;;;;;;;;5033555;28;20648;-67
2023/01/10 12:10:31;;;;;;;26.42;6.40;;;;;;;;;;5033265;28;20053;-67
2023/01/10 12:12:59;;;;;;;26.17;5.10;;;;;;;;;;5033831;28;20395;-66
2023/01/10 12:15:29;;;;;;;25.02;5.60;;;;;;;;;;5032457;28;20037;-66
2023/01/10 12:17:57;;;;;;;24.65;5.63;;;;;;;;;;5032079;28;20077;-67
2023/01/10 12:20:25;;;;;;;27.02;5.50;;;;;;;;;;5018334;28;20065;-68
2023/01/10 12:22:57;;;;;;;22.40;5.38;;;;;;;;;;5028331;28;20128;-70
2023/01/10 12:25:34;;;;;;;25.40;5.85;;;;;;;;;;5027837;28;20116;-69
2023/01/10 12:28:00;;;;;;;24.10;5.25;;;;;;;;;;5031424;28;20129;-68
2023/01/10 12:30:34;;;;;;;26.63;6.05;;;;;;;;;;5027000;28;20034;-68
2023/01/10 12:33:03;;;;;;;30.90;6.03;;;;;;;;;;5024777;28;20520;-68
2023/01/10 12:35:32;;;;;;;28.10;6.30;;;;;;;;;;5026490;28;20180;-68
2023/01/10 12:38:22;;;;;;;25.05;5.18;;;;;;;;;;5026101;28;20045;-68
2023/01/10 12:40:54;;;;;;;32.83;5.60;;;;;;;;;;5028258;28;20049;-68
2023/01/10 12:46:23;;;;;;;21.85;5.10;;;;;;;;;;5029532;28;20037;-67
2023/01/10 12:48:56;;;;;;;30.20;6.05;;;;;;;;;;5028138;28;20041;-68
2023/01/10 12:51:25;;;;;;;26.80;5.90;;;;;;;;;;5028022;28;20040;-66
2023/01/10 12:53:57;;;;;;;32.58;6.60;;;;;;;;;;5032136;28;20122;-68
2023/01/10 12:56:23;;;;;;;31.65;5.90;;;;;;;;;;5023592;28;20068;-68
2023/01/10 12:59:02;;;;;;;25.80;5.70;;;;;;;;;;5029852;28;20094;-68
2023/01/10 13:01:33;;;;;;;25.00;6.72;;;;;;;;;;5028561;28;20053;-68
2023/01/10 13:04:08;;;;;;;32.78;7.10;;;;;;;;;;5028182;28;20053;-68
2023/01/10 13:06:37;;;;;;;27.73;5.82;;;;;;;;;;5028169;28;21340;-66
2023/01/10 13:09:15;;;;;;;33.33;5.97;;;;;;;;;;5030080;28;20037;-67
2023/01/10 13:12:02;;;;;;;29.52;6.03;;;;;;;;;;5012149;28;20068;-68
2023/01/10 13:14:40;;;;;;;23.58;5.70;;;;;;;;;;5030740;28;20095;-68
2023/01/10 13:17:15;;;;;;;26.90;6.25;;;;;;;;;;5027689;28;20034;-67
2023/01/10 13:19:41;;;;;;;27.35;6.15;;;;;;;;;;5024585;28;20045;-68
2023/01/10 13:22:18;;;;;;;34.58;6.25;;;;;;;;;;5031813;28;20046;-68
2023/01/10 13:24:54;;;;;;;20.70;5.28;;;;;;;;;;5018768;28;20121;-69
2023/01/10 13:27:20;;;;;;;33.90;7.00;;;;;;;;;;5038848;28;20037;-68
2023/01/10 13:29:47;;;;;;;26.00;5.45;;;;;;;;;;5030239;28;20128;-69
2023/01/10 13:32:24;;;;;;;26.63;5.40;;;;;;;;;;5027780;28;20054;-68
2023/01/10 13:34:51;;;;;;;27.08;4.53;;;;;;;;;;5030591;28;20057;-68
2023/01/10 13:37:35;;;;;;;32.20;5.60;;;;;;;;;;5025702;28;20046;-66
2023/01/10 13:40:03;;;;;;;28.10;5.38;;;;;;;;;;5026313;28;20550;-67
2023/01/10 13:45:24;;;;;;;31.30;5.18;;;;;;;;;;5045121;28;20144;-68
2023/01/10 13:47:54;;;;;;;27.15;4.35;;;;;;;;;;5029037;28;20053;-68
2023/01/10 13:50:32;;;;;;;22.63;4.38;;;;;;;;;;5031918;28;20171;-68
2023/01/10 13:53:01;;;;;;;27.35;5.95;;;;;;;;;;5028475;28;20053;-66
2023/01/10 13:55:45;;;;;;;21.70;4.65;;;;;;;;;;5028675;28;20483;-66
2023/01/10 13:58:10;;;;;;;22.02;4.70;;;;;;;;;;5031064;28;20072;-67
2023/01/10 14:03:39;;;;;;;21.13;4.10;;;;;;;;;;5031029;28;20049;-68
2023/01/10 14:06:09;;;;;;;21.92;5.03;;;;;;;;;;5029609;28;20132;-68
2023/01/10 14:08:36;;;;;;;29.92;4.63;;;;;;;;;;5028378;28;20033;-68
2023/01/10 14:11:10;;;;;;;29.88;4.45;;;;;;;;;;5033002;28;20116;-68
2023/01/10 14:13:36;;;;;;;21.63;4.55;;;;;;;;;;5028470;28;20108;-69
2023/01/10 14:16:02;;;;;;;27.58;4.25;;;;;;;;;;5029255;28;20047;-69
2023/01/10 14:18:32;;;;;;;28.73;4.60;;;;;;;;;;5028042;28;20052;-67
2023/01/10 14:21:03;;;;;;;21.30;4.00;;;;;;;;;;5030055;28;20053;-67
2023/01/10 14:23:34;;;;;;;21.40;3.88;;;;;;;;;;5028145;28;20522;-67
2023/01/10 14:26:00;;;;;;;29.20;4.38;;;;;;;;;;5021853;28;20037;-68
2023/01/10 14:28:28;;;;;;;32.47;4.60;;;;;;;;;;5025527;28;20375;-68
2023/01/10 14:31:18;;;;;;;24.23;4.40;;;;;;;;;;5024325;28;21951;-69
2023/01/10 14:33:44;;;;;;;24.35;4.75;;;;;;;;;;5026106;28;20057;-66
2023/01/10 14:36:19;;;;;;;28.88;5.63;;;;;;;;;;5027595;28;20197;-69
2023/01/10 14:38:45;;;;;;;20.98;4.05;;;;;;;;;;5025877;28;20041;-68
2023/01/10 14:41:16;;;;;;;26.73;4.00;;;;;;;;;;5011740;28;20033;-68
2023/01/10 14:43:52;;;;;;;22.60;4.28;;;;;;;;;;5020669;28;20038;-68
2023/01/10 14:46:27;;;;;;;27.52;4.88;;;;;;;;;;5027734;28;20048;-67
2023/01/10 14:48:57;;;;;;;27.02;4.68;;;;;;;;;;5028080;28;20437;-67
2023/01/10 14:51:27;;;;;;;24.48;3.92;;;;;;;;;;5028881;28;20395;-67
2023/01/10 14:53:57;;;;;;;24.02;4.43;;;;;;;;;;5030023;28;20056;-68
2023/01/10 14:56:25;;;;;;;28.13;5.43;;;;;;;;;;5028364;28;20037;-68
2023/01/10 14:58:51;;;;;;;24.77;5.57;;;;;;;;;;5028816;28;20400;-67
2023/01/10 15:01:22;;;;;;;20.38;5.38;;;;;;;;;;5028861;28;20110;-67
2023/01/10 15:03:49;;;;;;;21.35;4.85;;;;;;;;;;5029271;28;20045;-67